Latest Weather Observations for Perisher Valley

IDN60801

Issued at 5:35 pm EST Friday 29 August 2014 (issued every 30 minutes, with the page automatically refreshed every 10 minutes)

About weather observations | Map of weather stations | Latest weather observations for NSW | Other Formats
Station Details ID: 071075 Name: PERISHER VALLEY AWS Lat: -36.41 Lon: 148.41 Height: 1738.0 m
Data from the previous 72 hours. | See also: Recent months at Perisher Valley
Date/Time
EST
Temp
°C
App
Temp
°C
Dew
Point
Rel
Hum
%
Delta-T
°C
Wind Press
QNH
hPa
Press
MSL
hPa
Rain
since 9 am
mm
Dir
 
Spd
km/h
Gust
km/h
Spd
kts
Gust
kts
29/05:30pm 3.5 1.0 -1.1 72 1.9 ESE 2 7 1 4 - - 0.0
29/05:00pm 4.1 1.1 -1.5 67 2.3 E 4 7 2 4 - - 0.0
29/04:30pm 4.9 1.9 -2.2 60 2.9 ESE 4 11 2 6 - - 0.0
29/04:00pm 5.3 1.5 -3.5 53 3.5 ESE 7 17 4 9 - - 0.0
29/03:30pm 5.8 2.0 -5.5 44 4.3 ESE 6 13 3 7 - - 0.0
29/03:00pm 6.1 2.2 -4.3 47 4.1 ESE 7 19 4 10 - - 0.0
29/02:30pm 6.4 2.2 -4.1 47 4.1 E 9 20 5 11 - - 0.0
29/02:00pm 6.8 2.8 -5.2 42 4.6 E 7 20 4 11 - - 0.0
29/01:30pm 6.6 2.7 -5.1 43 4.5 E 7 15 4 8 - - 0.0
29/01:00pm 7.0 3.5 -6.0 39 4.9 E 4 13 2 7 - - 0.0
29/12:30pm 6.4 2.4 -7.2 37 5.0 E 6 11 3 6 - - 0.0
29/12:00pm 6.1 1.8 -8.6 34 5.2 ESE 7 15 4 8 - - 0.0
29/11:30am 6.9 3.2 -8.2 33 5.4 ESE 4 13 2 7 - - 0.0
29/11:00am 6.2 1.8 -12.3 25 5.9 ESE 6 15 3 8 - - 0.0
29/10:30am 6.4 2.3 -14.3 21 6.3 SE 4 9 2 5 - - 0.0
29/10:00am 6.5 2.4 -14.8 20 6.5 ESE 4 9 2 5 - - 0.0
29/09:30am 5.4 0.4 -13.5 24 6.1 SSW 9 17 5 9 - - 0.0
29/09:00am 5.2 0.6 -13.2 25 6.0 SW 7 19 4 10 - - 0.0
29/08:30am 4.2 -0.4 -13.6 26 5.6 WSW 7 17 4 9 - - 0.0
29/08:00am 3.5 -1.2 -14.2 26 5.4 SW 7 17 4 9 - - 0.0
29/07:30am 2.5 -2.6 -14.6 27 5.1 SW 9 24 5 13 - - 0.0
29/07:00am 1.6 -3.5 -14.5 29 4.7 SW 9 20 5 11 - - 0.0
29/06:30am 1.1 -3.6 -15.8 27 4.7 SW 7 17 4 9 - - 0.0
29/06:00am 0.0 -4.1 -15.1 31 4.2 WSW 4 13 2 7 - - 0.0
29/05:30am -0.1 -4.6 -14.0 34 3.9 WSW 6 15 3 8 - - 0.0
29/05:00am -0.1 -4.1 -13.3 36 3.8 WSW 4 13 2 7 - - 0.0
29/04:30am 0.4 -4.1 -14.7 31 4.2 WSW 6 13 3 7 - - 0.0
29/04:00am -0.1 -4.5 -12.7 38 3.7 WSW 6 13 3 7 - - 0.0
29/03:30am 0.4 -4.0 -12.6 37 3.9 WSW 6 11 3 6 - - 0.0
29/03:00am -0.2 -4.2 -12.4 39 3.6 WSW 4 9 2 5 - - 0.0
29/02:30am -0.5 -4.4 -11.2 44 3.2 WSW 4 9 2 5 - - 0.0
29/02:00am -0.3 -3.8 -11.6 42 3.4 SW 2 6 1 3 - - 0.0
29/01:30am -0.2 -3.8 -12.4 39 3.6 SW 2 7 1 4 - - 0.0
29/01:00am -0.5 -4.8 -11.2 44 3.2 WSW 6 11 3 6 - - 0.0
29/12:30am -0.6 -4.5 -11.3 44 3.2 WSW 4 9 2 5 - - 0.0
29/12:00am -0.8 -4.3 -10.7 47 3.0 WSW 2 11 1 6 - - 0.0
 
Date/Time
EST
Temp
°C
App
Temp
°C
Dew
Point
Rel
Hum
%
Delta-T
°C
Wind Press
QNH
hPa
Press
MSL
hPa
Rain
since 9 am
mm
Dir
 
Spd
km/h
Gust
km/h
Spd
kts
Gust
kts
28/11:30pm -1.6 -4.6 -8.8 58 2.2 CALM 0 2 0 1 - - 0.0
28/11:00pm -0.7 -3.5 -7.1 62 2.1 CALM 0 6 0 3 - - 0.0
28/10:30pm -0.4 -3.1 -6.0 66 1.9 CALM 0 7 0 4 - - 0.0
28/10:00pm -1.5 -4.6 -6.2 70 1.5 SW 2 6 1 3 - - 0.0
28/09:30pm 0.0 -2.9 -3.9 75 1.4 SW 2 7 1 4 - - 0.0
28/09:00pm -0.9 -4.1 -3.1 85 0.8 SW 4 9 2 5 - - 0.0
28/08:30pm -2.7 -5.3 -4.7 86 0.6 CALM 0 4 0 2 - - 0.0
28/08:00pm -2.1 -5.0 -4.4 84 0.7 WSW 2 4 1 2 - - 0.0
28/07:30pm -1.4 -3.8 -3.4 86 0.7 CALM 0 0 0 0 - - 0.0
28/07:00pm -1.2 -3.6 -3.5 84 0.8 CALM 0 4 0 2 - - 0.0
28/06:30pm -0.8 -3.3 -3.6 81 1.0 SW 0 4 0 2 - - 0.0
28/06:00pm 0.1 -2.3 -3.3 78 1.3 CALM 0 2 0 1 - - 0.0
28/05:30pm 1.1 -1.3 -3.4 72 1.8 CALM 0 2 0 1 - - 0.0
28/05:00pm 3.1 0.7 -2.8 65 2.3 CALM 0 4 0 2 - - 0.0
28/04:30pm 5.3 2.1 -3.2 54 3.4 SE 4 7 2 4 - - 0.0
28/04:00pm 6.6 3.8 -3.3 49 4.0 S 2 7 1 4 - - 0.0
28/03:30pm 7.6 4.5 -5.8 38 5.1 WSW 2 6 1 3 - - 0.0
28/03:00pm 7.5 4.6 -4.6 42 4.8 SSW 2 6 1 3 - - 0.0
28/02:30pm 6.8 3.3 -5.8 40 4.8 SSW 4 9 2 5 - - 0.0
28/02:00pm 7.8 5.2 -5.3 39 5.1 CALM 0 2 0 1 - - 0.0
28/01:30pm 7.1 4.1 -4.9 42 4.7 ENE 2 6 1 3 - - 0.0
28/01:00pm 6.7 3.6 -5.9 40 4.8 NE 2 6 1 3 - - 0.0
28/12:30pm 5.5 2.0 -6.7 41 4.4 NNE 4 6 2 3 - - 0.0
28/12:00pm 5.3 1.7 -7.5 39 4.6 NE 4 7 2 4 - - 0.0
28/11:30am 4.9 0.9 -7.2 41 4.3 ESE 6 11 3 6 - - 0.0
28/11:00am 4.3 0.6 -8.1 40 4.3 NE 4 11 2 6 - - 0.0
28/10:30am 3.9 0.2 -8.1 41 4.4 NE 4 9 2 5 - - 0.0
28/10:00am 4.6 1.2 -9.5 35 5.0 NE 2 4 1 2 - - 0.0
28/09:30am 4.0 0.6 -10.0 35 4.8 ENE 2 4 1 2 - - 0.0
28/09:00am 2.1 -0.9 -9.1 43 3.8 CALM 0 2 0 1 - - 0.0
28/08:30am -1.2 -4.4 -11.9 44 3.1 CALM 0 0 0 0 - - 0.0
28/08:00am -2.5 -5.5 -9.6 58 2.1 CALM 0 0 0 0 - - 0.0
28/07:30am -4.5 -7.5 -9.9 66 1.4 CALM 0 4 0 2 - - 0.0
28/07:00am -6.7 -10.3 -12.5 63 1.3 WSW 2 6 1 3 - - 0.0
28/06:30am -7.0 -10.6 -13.0 62 1.3 SW 2 6 1 3 - - 0.0
28/06:00am -6.8 -11.2 -12.6 63 1.3 SW 6 7 3 4 - - 0.0
28/05:30am -7.0 -10.6 -11.9 68 1.1 SW 2 6 1 3 - - 0.0
28/05:00am -6.5 -10.0 -11.0 70 1.0 SW 2 6 1 3 - - 0.0
28/04:30am -6.4 -10.3 -10.6 72 0.9 SW 4 7 2 4 - - 0.0
28/04:00am -5.7 -9.8 -8.7 79 0.7 SW 6 9 3 5 - - 0.0
28/03:30am -5.7 -8.9 -7.7 86 0.4 SW 2 6 1 3 - - 0.0
28/03:00am -5.1 -8.2 -6.3 91 0.2 SW 2 9 1 5 - - 0.0
28/02:30am -4.1 -8.0 -4.6 96 0.0 WSW 7 11 4 6 - - 0.0
28/02:00am -3.2 -6.8 -3.9 95 0.1 SW 6 9 3 5 - - 0.0
28/01:30am -2.2 -4.6 -3.2 93 0.3 CALM 0 4 0 2 - - 0.0
28/01:00am -1.4 -3.6 -1.8 97 0.1 CALM 0 0 0 0 - - 0.0
28/12:30am -1.9 -4.6 -2.3 97 0.1 W 2 4 1 2 - - 0.0
28/12:00am -2.4 -5.5 -2.8 97 0.0 WSW 4 9 2 5 - - 0.0
 
Date/Time
EST
Temp
°C
App
Temp
°C
Dew
Point
Rel
Hum
%
Delta-T
°C
Wind Press
QNH
hPa
Press
MSL
hPa
Rain
since 9 am
mm
Dir
 
Spd
km/h
Gust
km/h
Spd
kts
Gust
kts
27/11:30pm -2.9 -5.4 -3.7 94 0.2 CALM 0 0 0 0 - - 0.0
27/11:00pm -2.8 -5.3 -3.8 93 0.2 CALM 0 4 0 2 - - 0.0
27/10:30pm -2.8 -5.3 -3.6 94 0.2 CALM 0 2 0 1 - - 0.0
27/10:00pm -3.0 -5.5 -4.0 93 0.2 CALM 0 0 0 0 - - 0.0
27/09:30pm -3.1 -5.7 -4.5 90 0.3 CALM 0 0 0 0 - - 0.0
27/09:00pm -2.2 -4.7 -3.6 90 0.4 CALM 0 2 0 1 - - 0.0
27/08:30pm -2.1 -4.6 -3.7 89 0.5 CALM 0 2 0 1 - - 0.0
27/08:00pm -2.3 -4.8 -4.0 88 0.5 CALM 0 2 0 1 - - 0.0
27/07:30pm -2.2 -4.7 -3.6 90 0.4 CALM 0 2 0 1 - - 0.0
27/07:00pm -1.7 -4.1 -3.3 89 0.5 CALM 0 4 0 2 - - 0.0
27/06:30pm -0.8 -3.1 -2.5 88 0.6 CALM 0 0 0 0 - - 0.0
27/06:00pm 0.5 -1.8 -2.0 83 1.0 CALM 0 2 0 1 - - 0.0
27/05:30pm 1.5 -1.8 -1.4 81 1.2 ENE 6 13 3 7 - - 0.0
27/05:00pm 2.3 -0.3 -1.8 74 1.6 ESE 2 7 1 4 - - 0.0
27/04:30pm 2.7 -0.4 -2.4 69 2.0 E 4 7 2 4 - - 0.0
27/04:00pm 3.5 0.5 -1.6 69 2.1 E 4 11 2 6 - - 0.0
27/03:30pm 3.1 -0.8 -1.3 73 1.8 E 9 17 5 9 - - 0.0
27/03:00pm 3.0 -1.0 -2.3 68 2.1 E 9 15 5 8 - - 0.0
27/02:30pm 3.4 -0.1 -1.3 71 1.9 ENE 7 17 4 9 - - 0.0
27/02:00pm 2.9 -0.7 -1.8 71 1.9 E 7 17 4 9 - - 0.0
27/01:30pm 3.1 -0.8 -1.6 71 1.9 E 9 15 5 8 - - 0.0
27/01:00pm 2.7 -1.6 -1.6 73 1.7 E 11 19 6 10 - - 0.0
27/12:30pm 2.3 -2.0 -1.7 75 1.6 ENE 11 19 6 10 - - 0.0
27/12:00pm 2.7 -0.8 -1.6 73 1.7 E 7 15 4 8 - - 0.0
27/11:30am 2.2 -1.4 -1.8 75 1.6 ESE 7 13 4 7 - - 0.0
27/11:00am 2.0 -1.9 -1.6 77 1.4 E 9 15 5 8 - - 0.0
27/10:30am 2.3 -1.0 -1.0 79 1.3 E 6 13 3 7 - - 0.0
27/10:00am 1.4 -2.5 -1.8 79 1.3 NE 9 15 5 8 - - 0.0
27/09:30am 1.1 -2.9 -2.3 78 1.4 NE 9 13 5 7 - - 0.0
27/09:00am 0.6 -2.5 -2.3 81 1.2 NE 4 11 2 6 - - 9.6
27/08:30am 0.4 -1.9 -2.3 82 1.1 CALM 0 2 0 1 - - 9.6
27/08:00am 0.1 -2.0 -1.0 92 0.4 CALM 0 0 0 0 - - 9.6
27/07:30am -1.8 -4.2 -2.9 92 0.3 CALM 0 0 0 0 - - 9.6
27/07:00am -2.2 -4.6 -3.0 94 0.2 CALM 0 0 0 0 - - 9.6
27/06:30am -1.7 -4.0 -2.4 95 0.2 CALM 0 0 0 0 - - 9.6
27/06:00am -1.4 -3.7 -2.1 95 0.2 CALM 0 4 0 2 - - 9.6
27/05:30am -1.1 -3.3 -1.7 96 0.2 CALM 0 6 0 3 - - 9.6
27/05:00am -0.8 -3.7 -1.2 97 0.1 NE 4 9 2 5 - - 9.6
27/04:30am -0.5 -4.3 -0.8 98 0.1 NNE 9 13 5 7 - - 9.6
27/04:00am -0.2 -3.4 -0.5 98 0.1 NE 6 11 3 6 - - 9.6
27/03:30am 0.0 -4.1 -0.4 97 0.2 NE 11 15 6 8 - - 9.6
27/03:00am 0.0 -3.2 -0.4 97 0.2 NE 6 9 3 5 - - 9.6
27/02:30am 0.1 -3.3 -0.5 96 0.2 ENE 7 13 4 7 - - 9.6
27/02:00am 0.2 -3.9 -0.4 96 0.3 ENE 11 19 6 10 - - 9.6
27/01:30am 0.3 -3.8 0.0 98 0.1 ENE 11 19 6 10 - - 9.6
27/01:00am 0.5 -3.1 0.4 99 0.0 ENE 9 15 5 8 - - 9.6
27/12:30am 0.6 -3.4 0.5 99 0.0 NE 11 17 6 9 - - 9.6
27/12:00am 0.5 -2.8 0.4 99 0.0 NE 7 13 4 7 - - 9.6
 
Date/Time
EST
Temp
°C
App
Temp
°C
Dew
Point
Rel
Hum
%
Delta-T
°C
Wind Press
QNH
hPa
Press
MSL
hPa
Rain
since 9 am
mm
Dir
 
Spd
km/h
Gust
km/h
Spd
kts
Gust
kts
26/11:30pm 0.6 -3.0 0.5 99 0.0 ENE 9 15 5 8 - - 9.6
26/11:00pm 0.7 -4.0 0.6 99 0.0 ENE 15 22 8 12 - - 9.6
26/10:30pm 1.1 -3.6 1.0 99 0.0 ENE 15 20 8 11 - - 9.6
26/10:00pm 1.3 -4.1 1.2 99 0.0 ENE 19 24 10 13 - - 9.6
26/09:30pm 1.2 -4.2 1.1 99 0.0 E 19 28 10 15 - - 9.6
26/09:00pm 1.6 -3.4 1.5 99 0.0 E 17 22 9 12 - - 9.4
26/08:30pm 1.6 -2.2 1.5 99 0.0 ENE 11 17 6 9 - - 9.2
26/08:00pm 1.3 -3.0 1.2 99 0.0 E 13 20 7 11 - - 8.8
26/07:30pm 1.4 -4.0 1.3 99 0.0 E 19 30 10 16 - - 8.8
26/07:00pm 1.7 -3.3 1.6 99 0.0 E 17 22 9 12 - - 8.8
26/06:30pm 1.8 -2.4 1.7 99 0.0 E 13 22 7 12 - - 8.8
26/06:00pm 1.8 -3.7 1.7 99 0.0 E 20 30 11 16 - - 8.8

Other Formats:

Comma delimited format used in spreadsheet applications
http://www.bom.gov.au/fwo/IDN60801/IDN60801.94915.axf

JavaScript Object Notation format (JSON) in row-major order
http://www.bom.gov.au/fwo/IDN60801/IDN60801.94915.json